Time;durP1;ratioP1;P1;durP2;ratioP2;P2;SDS_P1;SDS_P2;PMS_P1;PMS_P2;Temp;Humidity;BMP_temperature;BMP_pressure;BME280_temperature;BME280_humidity;BME280_pressure;Samples;Min_cycle;Max_cycle;Signal;HPM_P1;HPM_P2
2023/07/20 00:02:20;;;;;;;3.78;0.90;;;;;;;39.23;15.06;100734.44;4941550;28;20047;-74
2023/07/20 00:04:49;;;;;;;2.72;1.20;;;;;;;39.20;14.79;100740.13;4938767;28;20048;-75
2023/07/20 00:07:18;;;;;;;1.67;0.95;;;;;;;39.18;14.32;100736.72;4951527;28;20695;-74
2023/07/20 00:09:48;;;;;;;1.10;0.88;;;;;;;39.16;14.44;100733.28;4947311;28;20199;-73
2023/07/20 00:12:17;;;;;;;2.03;1.00;;;;;;;39.08;14.52;100719.59;4947029;28;20079;-74
2023/07/20 00:14:46;;;;;;;1.63;0.90;;;;;;;39.09;13.19;100721.31;4945275;28;20297;-76
2023/07/20 00:17:15;;;;;;;1.63;1.00;;;;;;;38.85;13.35;100733.34;4948478;28;20532;-75
2023/07/20 00:19:46;;;;;;;3.10;0.98;;;;;;;38.74;14.68;100725.38;4941351;28;20054;-77
2023/07/20 00:22:15;;;;;;;3.58;1.05;;;;;;;38.75;16.27;100729.75;4946127;28;20047;-74
2023/07/20 00:24:43;;;;;;;1.83;1.00;;;;;;;38.63;16.29;100733.59;4948145;28;20043;-75
2023/07/20 00:27:13;;;;;;;2.25;0.88;;;;;;;38.57;17.37;100726.00;4950051;28;20055;-75
2023/07/20 00:29:45;;;;;;;2.22;0.88;;;;;;;38.50;15.93;100734.66;4945769;28;20059;-76
2023/07/20 00:32:13;;;;;;;2.05;0.90;;;;;;;38.46;16.46;100722.41;4953358;28;20051;-73
2023/07/20 00:34:42;;;;;;;2.75;0.80;;;;;;;38.49;16.63;100726.69;4949824;28;20055;-74
2023/07/20 00:37:10;;;;;;;2.40;1.05;;;;;;;38.53;16.77;100717.31;4951966;28;20323;-76
2023/07/20 00:39:39;;;;;;;1.67;1.05;;;;;;;38.52;16.79;100723.72;4955353;28;20383;-75
2023/07/20 00:42:08;;;;;;;3.25;1.00;;;;;;;38.53;16.75;100720.88;4946119;28;20048;-76
2023/07/20 00:44:38;;;;;;;3.53;0.90;;;;;;;38.57;16.39;100717.91;4954000;28;20493;-75
2023/07/20 00:47:08;;;;;;;3.85;1.20;;;;;;;38.54;16.31;100717.19;4953081;28;20514;-74
2023/07/20 00:49:36;;;;;;;1.27;0.80;;;;;;;38.53;17.16;100714.59;4950755;28;20654;-73
2023/07/20 00:52:08;;;;;;;10.10;3.10;;;;;;;38.48;16.81;100712.31;4951769;28;20047;-78
2023/07/20 00:54:38;;;;;;;3.35;0.95;;;;;;;38.35;17.50;100704.41;4952338;28;20070;-76
2023/07/20 00:57:08;;;;;;;3.75;1.23;;;;;;;38.31;16.96;100708.38;4950455;28;20142;-77
2023/07/20 00:59:39;;;;;;;3.88;1.00;;;;;;;38.24;17.11;100695.56;4951554;28;20492;-75
2023/07/20 01:02:07;;;;;;;3.42;1.00;;;;;;;38.23;17.55;100707.34;4952280;28;20043;-76
2023/07/20 01:04:37;;;;;;;4.68;1.20;;;;;;;38.17;18.10;100700.66;4951345;28;20604;-76
2023/07/20 01:07:13;;;;;;;2.17;1.00;;;;;;;38.11;19.15;100699.31;4938213;28;20052;-76
2023/07/20 01:09:48;;;;;;;2.72;0.90;;;;;;;38.02;20.12;100700.13;4941312;28;20544;-76
2023/07/20 01:12:24;;;;;;;5.65;1.65;;;;;;;37.91;20.99;100703.75;4951906;28;20066;-78
2023/07/20 01:14:56;;;;;;;4.30;1.15;;;;;;;37.85;20.83;100706.97;4939950;28;20044;-75
2023/07/20 01:17:25;;;;;;;3.78;0.95;;;;;;;37.80;21.77;100711.06;4952756;28;20069;-79
2023/07/20 01:19:54;;;;;;;7.90;1.10;;;;;;;37.67;22.22;100712.13;4948676;28;20133;-77
2023/07/20 01:22:40;;;;;;;6.22;1.50;;;;;;;37.42;22.11;100713.31;4951948;28;21356;-78
2023/07/20 01:25:36;;;;;;;6.25;0.95;;;;;;;37.08;22.80;100709.91;4936392;28;20058;-79
2023/07/20 01:28:30;;;;;;;2.28;0.95;;;;;;;36.86;23.11;100711.66;4946871;28;20059;-77
2023/07/20 01:31:06;;;;;;;2.95;1.00;;;;;;;36.70;23.24;100716.59;4954177;28;20106;-82
2023/07/20 01:33:37;;;;;;;2.67;1.08;;;;;;;36.60;23.46;100721.00;4952622;28;20138;-77
2023/07/20 01:36:07;;;;;;;4.32;1.17;;;;;;;36.43;23.99;100720.50;4954260;28;20058;-77
2023/07/20 01:38:36;;;;;;;2.40;1.08;;;;;;;36.20;24.28;100710.69;4946495;28;20641;-78
2023/07/20 01:41:05;;;;;;;3.72;1.20;;;;;;;36.00;24.73;100712.22;4945919;28;20055;-75
2023/07/20 01:43:34;;;;;;;7.20;1.00;;;;;;;35.88;24.89;100719.44;4949496;28;20047;-77
2023/07/20 01:46:03;;;;;;;3.55;1.00;;;;;;;35.71;25.36;100723.41;4954822;28;20051;-77
2023/07/20 01:48:31;;;;;;;2.53;0.77;;;;;;;35.49;25.68;100717.94;4951711;28;20759;-79
2023/07/20 01:51:01;;;;;;;3.92;1.08;;;;;;;35.41;25.98;100729.28;4953510;28;20047;-81
2023/07/20 01:53:33;;;;;;;3.78;1.30;;;;;;;35.33;26.30;100723.63;4949185;28;20051;-78
2023/07/20 01:56:01;;;;;;;6.72;1.52;;;;;;;35.11;26.94;100724.34;4945310;28;20054;-80
2023/07/20 01:58:30;;;;;;;4.93;1.00;;;;;;;34.91;27.14;100737.44;4951959;28;20107;-78
2023/07/20 02:00:58;;;;;;;9.35;1.77;;;;;;;34.76;27.13;100741.22;4953198;28;20663;-79
2023/07/20 02:03:27;;;;;;;5.82;1.60;;;;;;;34.65;27.99;100744.69;4949808;28;20109;-76
2023/07/20 02:05:56;;;;;;;7.65;1.60;;;;;;;34.51;27.61;100739.41;4948916;28;20055;-78
2023/07/20 02:08:27;;;;;;;6.75;1.70;;;;;;;34.42;28.51;100746.28;4950212;28;20051;-77
2023/07/20 02:10:56;;;;;;;13.90;3.03;;;;;;;34.35;28.21;100743.19;4949610;28;20055;-79
2023/07/20 02:13:24;;;;;;;8.43;1.33;;;;;;;34.04;28.58;100748.94;4950403;28;20804;-77
2023/07/20 02:15:53;;;;;;;6.75;1.60;;;;;;;33.87;29.01;100753.66;4950297;28;20110;-81
2023/07/20 02:18:21;;;;;;;3.17;1.02;;;;;;;33.81;28.70;100762.13;4951667;28;20054;-81
2023/07/20 02:20:50;;;;;;;5.78;1.30;;;;;;;33.67;29.06;100762.19;4949448;28;20047;-79
2023/07/20 02:23:19;;;;;;;7.35;1.48;;;;;;;33.53;29.46;100768.47;4942109;28;20183;-78
2023/07/20 02:25:49;;;;;;;3.03;1.23;;;;;;;33.22;29.66;100773.19;4947570;28;20047;-78
2023/07/20 02:28:17;;;;;;;3.70;1.67;;;;;;;33.10;30.06;100777.53;4948745;28;20463;-78
2023/07/20 02:30:46;;;;;;;5.03;1.35;;;;;;;32.99;29.92;100782.69;4946671;28;20070;-80
2023/07/20 02:33:15;;;;;;;3.65;1.35;;;;;;;32.81;30.61;100773.13;4949229;28;20051;-76
2023/07/20 02:35:44;;;;;;;3.75;1.23;;;;;;;32.64;30.96;100782.22;4948672;28;20128;-79
2023/07/20 02:38:12;;;;;;;6.68;1.38;;;;;;;32.52;30.54;100778.50;4947143;28;20058;-78
2023/07/20 02:40:41;;;;;;;6.03;1.30;;;;;;;32.37;30.96;100785.63;4942077;28;20055;-78
2023/07/20 02:43:15;;;;;;;7.00;1.27;;;;;;;32.25;30.48;100789.91;4946480;28;20052;-81
2023/07/20 02:45:44;;;;;;;5.53;1.40;;;;;;;32.09;31.43;100789.13;4952052;28;20061;-79
2023/07/20 02:48:12;;;;;;;5.05;1.45;;;;;;;31.82;31.69;100792.47;4952041;28;20636;-78
2023/07/20 02:50:41;;;;;;;5.65;1.30;;;;;;;31.60;31.93;100800.03;4945894;28;20508;-77
2023/07/20 02:53:10;;;;;;;5.45;1.33;;;;;;;31.29;32.04;100799.03;4943569;28;20139;-78
2023/07/20 02:55:38;;;;;;;3.20;1.20;;;;;;;31.10;32.46;100807.25;4945016;28;20162;-77
2023/07/20 02:58:07;;;;;;;11.45;1.52;;;;;;;31.01;33.25;100818.44;4943666;28;20082;-78
2023/07/20 03:00:37;;;;;;;2.88;1.30;;;;;;;30.85;33.30;100807.72;4949061;28;20142;-76
2023/07/20 03:03:09;;;;;;;11.82;1.40;;;;;;;30.63;32.85;100808.00;4947864;28;20758;-76
2023/07/20 03:05:39;;;;;;;;;;;;;;;30.52;33.85;100816.59;4947735;28;20767;-76
2023/07/20 03:08:07;;;;;;;5.65;1.30;;;;;;;30.39;33.48;100821.69;4941159;28;20421;-75
2023/07/20 03:10:41;;;;;;;7.35;1.48;;;;;;;30.27;34.29;100819.69;4942101;28;20056;-77
2023/07/20 03:13:11;;;;;;;4.13;1.30;;;;;;;30.00;34.04;100824.59;4949020;28;20579;-80
2023/07/20 03:15:44;;;;;;;6.15;1.40;;;;;;;29.75;34.79;100828.47;4947772;28;20043;-77
2023/07/20 03:18:13;;;;;;;5.28;1.20;;;;;;;29.62;35.03;100830.00;4938087;28;20062;-77
2023/07/20 03:20:41;;;;;;;6.10;1.30;;;;;;;29.54;36.39;100843.69;4938586;28;20420;-77
2023/07/20 03:23:11;;;;;;;6.25;1.50;;;;;;;29.48;36.48;100837.78;4943145;29;20081;-80
2023/07/20 03:25:40;;;;;;;6.95;1.70;;;;;;;29.40;36.71;100844.34;4948872;28;20142;-78
2023/07/20 03:28:09;;;;;;;4.60;1.30;;;;;;;29.35;36.98;100843.72;4950103;28;20104;-80
2023/07/20 03:30:37;;;;;;;4.40;1.80;;;;;;;29.21;36.30;100847.03;4948434;28;20390;-77
2023/07/20 03:33:07;;;;;;;5.70;1.20;;;;;;;29.05;37.44;100854.00;4948507;28;20102;-78
2023/07/20 03:35:37;;;;;;;4.32;1.30;;;;;;;28.96;36.77;100855.25;4941374;28;20407;-80
2023/07/20 03:38:07;;;;;;;6.20;1.35;;;;;;;28.83;37.37;100862.06;4941029;28;20047;-77
2023/07/20 03:40:36;;;;;;;8.50;1.58;;;;;;;28.67;38.53;100866.38;4949162;28;20584;-79
2023/07/20 03:43:05;;;;;;;4.28;1.25;;;;;;;28.57;38.37;100866.78;4939570;28;20051;-76
2023/07/20 03:45:33;;;;;;;9.00;1.60;;;;;;;28.51;38.16;100869.69;4937302;28;20052;-77
2023/07/20 03:48:02;;;;;;;7.05;1.42;;;;;;;28.40;37.84;100877.25;4942328;28;20122;-79
2023/07/20 03:50:32;;;;;;;8.45;1.73;;;;;;;28.32;38.11;100877.56;4942033;28;20082;-79
2023/07/20 03:53:01;;;;;;;4.50;1.40;;;;;;;28.23;38.40;100874.44;4941231;28;20055;-79
2023/07/20 03:55:30;;;;;;;4.22;1.40;;;;;;;28.16;38.49;100882.69;4944983;28;20051;-78
2023/07/20 03:57:58;;;;;;;6.78;1.30;;;;;;;28.08;38.74;100874.13;4946344;28;20047;-80
2023/07/20 04:00:31;;;;;;;6.32;1.50;;;;;;;27.95;38.83;100880.91;4948495;28;20051;-80
2023/07/20 04:03:00;;;;;;;3.67;1.15;;;;;;;27.83;38.90;100878.72;4949375;28;20059;-79
2023/07/20 04:05:29;;;;;;;2.22;1.02;;;;;;;27.76;38.95;100889.59;4942635;28;20118;-79
2023/07/20 04:08:00;;;;;;;7.00;1.55;;;;;;;27.70;39.29;100894.31;4940873;28;20815;-79
2023/07/20 04:10:30;;;;;;;10.48;1.70;;;;;;;27.58;39.15;100900.97;4948066;28;20055;-79
2023/07/20 04:12:59;;;;;;;4.63;1.55;;;;;;;27.47;39.61;100906.69;4945991;28;20527;-79
2023/07/20 04:15:27;;;;;;;6.93;1.77;;;;;;;27.38;39.99;100899.06;4946270;28;20059;-80
2023/07/20 04:17:56;;;;;;;4.03;1.38;;;;;;;27.29;40.58;100905.59;4946715;28;20516;-79
2023/07/20 04:20:25;;;;;;;4.18;1.15;;;;;;;27.22;40.48;100914.72;4938760;28;20044;-79
2023/07/20 04:22:53;;;;;;;3.80;1.50;;;;;;;27.15;40.51;100915.84;4931194;28;20056;-79
2023/07/20 04:25:24;;;;;;;4.07;1.38;;;;;;;27.04;41.03;100918.03;4947439;28;20220;-78
2023/07/20 04:27:53;;;;;;;7.72;1.50;;;;;;;26.97;41.92;100928.00;4943782;28;20410;-80
2023/07/20 04:30:22;;;;;;;5.38;1.73;;;;;;;26.87;41.98;100922.16;4942506;28;20594;-79
2023/07/20 04:32:53;;;;;;;2.50;1.20;;;;;;;26.78;41.56;100930.44;4941459;28;20544;-80
2023/07/20 04:35:49;;;;;;;6.07;1.58;;;;;;;26.67;41.39;100935.28;4945978;28;20083;-78
2023/07/20 04:38:18;;;;;;;7.05;1.73;;;;;;;26.46;41.99;100940.34;4949995;28;20051;-78
2023/07/20 04:40:50;;;;;;;4.75;1.10;;;;;;;26.36;41.73;100938.06;4945640;28;20576;-77
2023/07/20 04:43:20;;;;;;;2.90;1.33;;;;;;;26.30;42.10;100947.97;4948542;28;20047;-79
2023/07/20 04:45:48;;;;;;;4.18;1.20;;;;;;;26.21;42.51;100947.41;4948133;28;20051;-78
2023/07/20 04:48:20;;;;;;;7.18;1.88;;;;;;;26.09;42.53;100952.19;4946278;28;20059;-77
2023/07/20 04:50:48;;;;;;;3.10;1.70;;;;;;;25.98;42.80;100950.78;4942309;28;20047;-78
2023/07/20 04:53:17;;;;;;;3.65;1.30;;;;;;;25.89;42.91;100959.88;4949407;28;20813;-77
2023/07/20 04:55:52;;;;;;;5.10;1.27;;;;;;;25.81;43.25;100962.72;4950481;28;20497;-78
2023/07/20 04:58:21;;;;;;;5.05;1.55;;;;;;;25.74;43.23;100976.22;4947292;28;20047;-78
2023/07/20 05:00:50;;;;;;;9.00;1.55;;;;;;;25.67;43.91;100976.38;4949190;28;20054;-78
2023/07/20 05:03:19;;;;;;;2.78;1.30;;;;;;;25.55;43.48;100982.06;4948608;28;20126;-78
2023/07/20 05:05:49;;;;;;;2.58;1.27;;;;;;;25.40;43.93;100978.06;4948380;28;20062;-77
2023/07/20 05:08:18;;;;;;;6.18;1.40;;;;;;;25.19;44.49;100987.47;4942655;28;20051;-77
2023/07/20 05:10:51;;;;;;;4.72;1.50;;;;;;;25.04;45.02;100988.75;4944500;28;20078;-76
2023/07/20 05:13:19;;;;;;;4.38;1.83;;;;;;;24.92;45.03;100993.47;4945723;28;20049;-76
2023/07/20 05:15:48;;;;;;;5.03;1.77;;;;;;;24.73;45.32;100991.31;4945740;28;20043;-79
2023/07/20 05:18:19;;;;;;;4.65;1.80;;;;;;;24.59;46.05;100994.31;4946920;28;20071;-75
2023/07/20 05:20:48;;;;;;;7.47;1.60;;;;;;;24.42;46.52;100997.34;4944551;28;20052;-79
2023/07/20 05:23:19;;;;;;;2.85;1.50;;;;;;;24.33;47.38;101007.28;4950649;28;20814;-75
2023/07/20 05:26:09;;;;;;;8.15;1.83;;;;;;;24.18;47.93;101005.84;4950965;28;20099;-78
2023/07/20 05:35:43;;;;;;;4.82;1.70;;;;;;;23.75;49.58;101031.41;4946425;28;20126;-79
2023/07/20 05:38:12;;;;;;;3.88;1.75;;;;;;;23.66;49.14;101025.44;4950814;28;20043;-78
2023/07/20 05:40:42;;;;;;;4.70;1.50;;;;;;;23.43;50.07;101024.13;4949343;28;20051;-78
2023/07/20 05:43:12;;;;;;;5.90;1.65;;;;;;;23.36;50.08;101031.28;4948377;28;20055;-78
2023/07/20 05:45:44;;;;;;;4.13;1.60;;;;;;;23.30;50.55;101036.69;4949279;28;20082;-79
2023/07/20 05:48:13;;;;;;;6.72;1.90;;;;;;;23.20;50.58;101035.13;4949669;28;20043;-78
2023/07/20 05:50:45;;;;;;;3.72;1.50;;;;;;;23.06;51.05;101045.06;4948410;28;20510;-78
2023/07/20 05:53:13;;;;;;;;;;;;;;;22.92;51.40;101045.25;4946286;28;20576;-79
2023/07/20 05:55:41;;;;;;;3.88;1.63;;;;;;;22.78;51.43;101049.00;4947182;28;20404;-78
2023/07/20 05:58:18;;;;;;;6.63;1.70;;;;;;;22.68;52.12;101043.91;4949389;28;20057;-80
2023/07/20 06:00:50;;;;;;;3.70;1.30;;;;;;;22.61;52.16;101053.69;4948139;28;20047;-81
2023/07/20 06:03:26;;;;;;;5.30;1.77;;;;;;;22.40;52.61;101049.59;4947436;28;20043;-80
2023/07/20 06:06:01;;;;;;;4.10;1.58;;;;;;;22.36;52.71;101059.31;4950712;28;20516;-78
2023/07/20 06:08:36;;;;;;;3.53;1.30;;;;;;;22.29;53.47;101062.94;4950626;28;20494;-76
2023/07/20 06:11:04;;;;;;;3.50;1.40;;;;;;;22.16;53.51;101061.34;4950838;28;20039;-77
2023/07/20 06:13:34;;;;;;;4.10;1.60;;;;;;;22.11;54.05;101073.72;4951406;28;20055;-78
2023/07/20 06:16:03;;;;;;;4.03;1.45;;;;;;;21.98;54.79;101077.38;4950431;28;20055;-76
2023/07/20 06:18:34;;;;;;;3.42;1.45;;;;;;;21.80;54.98;101078.47;4948509;28;20110;-79
2023/07/20 06:21:03;;;;;;;1.75;1.10;;;;;;;21.66;55.41;101079.50;4950174;28;20058;-77
2023/07/20 06:23:31;;;;;;;2.53;1.10;;;;;;;21.54;56.17;101080.50;4944234;28;20051;-78
2023/07/20 06:26:00;;;;;;;2.83;1.00;;;;;;;21.38;56.64;101085.94;4947382;28;20066;-78
2023/07/20 06:28:28;;;;;;;4.50;1.42;;;;;;;21.29;56.85;101086.88;4949993;28;20713;-76
2023/07/20 06:31:03;;;;;;;4.03;1.30;;;;;;;21.24;57.64;101091.31;4949688;28;20062;-80
2023/07/20 06:33:32;;;;;;;3.65;1.45;;;;;;;21.16;57.41;101087.88;4948651;28;20139;-78
2023/07/20 06:36:00;;;;;;;1.92;1.15;;;;;;;21.09;57.76;101095.81;4946648;28;20390;-78
2023/07/20 06:38:29;;;;;;;1.60;1.08;;;;;;;21.06;58.17;101090.59;4947754;28;20051;-78
2023/07/20 06:40:58;;;;;;;1.45;1.02;;;;;;;21.02;58.02;101088.84;4950489;28;20051;-79
2023/07/20 06:43:26;;;;;;;3.50;1.17;;;;;;;20.98;58.18;101102.06;4948456;28;20043;-79
2023/07/20 06:45:55;;;;;;;1.33;1.05;;;;;;;20.96;58.38;101104.72;4945302;28;20497;-79
2023/07/20 06:48:26;;;;;;;3.35;1.10;;;;;;;20.92;58.64;101108.25;4948258;28;20304;-79
2023/07/20 06:50:55;;;;;;;2.90;1.08;;;;;;;20.90;58.91;101102.13;4947668;28;20118;-78
2023/07/20 06:53:23;;;;;;;2.45;1.27;;;;;;;20.90;59.05;101110.00;4944026;28;20056;-78
2023/07/20 06:55:52;;;;;;;4.53;1.27;;;;;;;20.90;59.43;101110.88;4940442;28;20054;-78
2023/07/20 06:58:21;;;;;;;2.55;1.10;;;;;;;20.86;59.45;101119.66;4946197;28;20055;-78
2023/07/20 07:00:50;;;;;;;2.80;1.02;;;;;;;20.80;59.45;101114.47;4941703;28;20067;-78
2023/07/20 07:03:19;;;;;;;2.42;1.30;;;;;;;20.71;59.86;101115.41;4946966;28;20047;-78
2023/07/20 07:05:49;;;;;;;4.63;1.30;;;;;;;20.69;59.94;101122.44;4947214;28;20524;-78
2023/07/20 07:08:18;;;;;;;2.53;0.90;;;;;;;20.63;60.16;101119.81;4950628;28;20102;-80
2023/07/20 07:10:47;;;;;;;1.25;1.00;;;;;;;20.61;60.39;101124.22;4951239;28;20512;-78
2023/07/20 07:13:15;;;;;;;1.33;0.95;;;;;;;20.59;60.23;101126.00;4956958;28;20053;-79
2023/07/20 07:15:45;;;;;;;2.03;1.00;;;;;;;20.55;60.16;101125.97;4947591;28;20059;-78
2023/07/20 07:18:14;;;;;;;2.28;1.25;;;;;;;20.47;60.20;101118.13;4947711;28;20047;-79
2023/07/20 07:20:42;;;;;;;2.65;1.27;;;;;;;20.51;60.31;101130.41;4947670;28;20043;-78
2023/07/20 07:23:13;;;;;;;1.13;0.75;;;;;;;20.50;60.44;101132.16;4946645;28;20114;-78
2023/07/20 07:25:41;;;;;;;1.48;1.10;;;;;;;20.51;60.39;101135.66;4948963;28;20413;-78
2023/07/20 07:28:10;;;;;;;2.90;1.10;;;;;;;20.49;60.38;101140.91;4950866;28;20130;-77
2023/07/20 07:30:39;;;;;;;3.72;0.88;;;;;;;20.48;60.51;101138.31;4944115;28;20062;-80
2023/07/20 07:33:08;;;;;;;2.22;1.00;;;;;;;20.48;60.71;101148.81;4949359;28;20102;-77
2023/07/20 07:35:37;;;;;;;1.90;1.13;;;;;;;20.43;60.77;101143.59;4951710;28;20551;-80
2023/07/20 07:38:06;;;;;;;2.13;1.08;;;;;;;20.36;60.84;101147.09;4951473;28;20053;-79
2023/07/20 07:40:39;;;;;;;1.70;1.02;;;;;;;20.34;61.88;101150.63;4947490;28;20051;-78
2023/07/20 07:43:11;;;;;;;1.83;1.02;;;;;;;20.24;62.22;101148.03;4946725;28;20474;-78
2023/07/20 07:45:40;;;;;;;2.33;1.33;;;;;;;20.20;62.08;101148.03;4949750;28;20051;-77
2023/07/20 07:48:11;;;;;;;3.40;1.25;;;;;;;20.20;62.41;101153.31;4950365;28;20051;-78
2023/07/20 07:50:40;;;;;;;2.55;0.88;;;;;;;20.15;63.23;101155.09;4948977;28;20130;-78
2023/07/20 07:53:13;;;;;;;2.15;0.95;;;;;;;20.06;63.32;101155.97;4948820;28;20111;-79
2023/07/20 07:55:43;;;;;;;4.43;1.05;;;;;;;19.99;64.27;101157.75;4948965;28;20051;-79
2023/07/20 07:58:11;;;;;;;1.88;1.10;;;;;;;19.86;64.62;101159.56;4950297;28;20089;-78
2023/07/20 08:00:40;;;;;;;2.72;1.33;;;;;;;19.78;64.95;101161.31;4948213;28;20608;-77
2023/07/20 08:03:11;;;;;;;2.58;1.30;;;;;;;19.73;65.04;101163.06;4948631;28;20062;-78
2023/07/20 08:05:39;;;;;;;2.72;1.20;;;;;;;19.70;65.04;101168.34;4950200;28;20051;-77
2023/07/20 08:08:08;;;;;;;2.17;1.27;;;;;;;19.66;65.33;101172.69;4948259;28;20218;-79
2023/07/20 08:10:37;;;;;;;1.75;1.10;;;;;;;19.63;65.87;101171.78;4948492;28;20051;-80
2023/07/20 08:13:07;;;;;;;4.75;1.02;;;;;;;19.55;66.14;101176.19;4945547;28;20599;-81
2023/07/20 08:15:36;;;;;;;2.58;1.42;;;;;;;19.49;67.02;101173.56;4947330;28;20062;-79
2023/07/20 08:18:04;;;;;;;2.33;0.95;;;;;;;19.37;66.84;101158.69;4948718;28;20059;-78
2023/07/20 08:20:35;;;;;;;1.45;1.10;;;;;;;19.40;67.31;101183.22;4939705;28;20095;-78
2023/07/20 08:23:04;;;;;;;2.95;0.68;;;;;;;19.37;67.52;101185.81;4946805;28;20055;-77
2023/07/20 08:25:33;;;;;;;3.03;0.70;;;;;;;19.37;67.52;101179.69;4948590;28;20611;-79
2023/07/20 08:28:02;;;;;;;2.65;1.15;;;;;;;19.41;67.76;101181.44;4950710;28;20067;-78
2023/07/20 08:30:42;;;;;;;2.85;0.85;;;;;;;19.41;67.50;101186.69;4950122;28;20526;-79
2023/07/20 08:33:15;;;;;;;2.00;1.25;;;;;;;19.37;67.64;101191.06;4944913;28;20525;-79
2023/07/20 08:35:45;;;;;;;2.90;1.25;;;;;;;19.24;68.12;101195.44;4945575;28;20573;-78
2023/07/20 08:38:13;;;;;;;2.10;1.00;;;;;;;19.21;67.93;101202.41;4948443;28;20075;-77
2023/07/20 08:40:43;;;;;;;2.22;1.00;;;;;;;19.15;68.28;101205.94;4943696;28;20050;-77
2023/07/20 08:43:13;;;;;;;1.60;0.65;;;;;;;19.10;68.87;101206.78;4945971;28;20082;-77
2023/07/20 08:45:44;;;;;;;0.82;0.80;;;;;;;19.02;68.85;101215.50;4947979;28;20120;-77
2023/07/20 08:48:14;;;;;;;1.30;0.90;;;;;;;18.97;69.16;101213.75;4943949;28;20578;-77
2023/07/20 08:50:44;;;;;;;2.40;0.95;;;;;;;18.92;69.03;101208.50;4943421;28;20051;-77
2023/07/20 08:53:16;;;;;;;3.63;1.15;;;;;;;18.88;70.07;101206.75;4951548;28;20142;-79
2023/07/20 08:55:47;;;;;;;1.95;0.80;;;;;;;18.78;70.47;101207.56;4946556;28;20101;-78
2023/07/20 08:58:17;;;;;;;1.15;0.60;;;;;;;18.69;71.51;101216.28;4948433;28;20043;-79
2023/07/20 09:00:51;;;;;;;2.03;0.93;;;;;;;18.60;71.40;101217.13;4949894;28;20051;-76
2023/07/20 09:03:20;;;;;;;0.65;0.63;;;;;;;18.56;71.90;101215.34;4947703;28;20419;-78
2023/07/20 09:05:49;;;;;;;1.95;0.80;;;;;;;18.51;72.82;101219.69;4950831;28;20640;-77
2023/07/20 09:08:18;;;;;;;2.75;0.95;;;;;;;18.43;72.34;101217.03;4949366;28;20509;-76
2023/07/20 09:10:47;;;;;;;1.50;0.80;;;;;;;18.41;72.46;101216.13;4952590;28;20042;-77
2023/07/20 09:13:17;;;;;;;2.25;0.85;;;;;;;18.41;72.84;101213.50;4946516;28;20122;-79
2023/07/20 09:15:55;;;;;;;1.38;0.70;;;;;;;18.38;72.54;101215.25;4944574;28;20050;-79
2023/07/20 09:18:27;;;;;;;1.95;0.93;;;;;;;18.37;73.07;101208.25;4950276;28;20049;-77
2023/07/20 09:21:01;;;;;;;0.90;0.70;;;;;;;18.37;71.95;101216.13;4951034;28;20055;-78
2023/07/20 09:23:34;;;;;;;1.35;0.63;;;;;;;18.39;72.42;101217.00;4951241;28;20105;-78
2023/07/20 09:26:10;;;;;;;0.80;0.70;;;;;;;18.40;72.86;101213.53;4952044;28;20519;-77
2023/07/20 09:28:49;;;;;;;2.65;0.80;;;;;;;18.33;73.48;101210.00;4948666;28;20059;-78
2023/07/20 09:31:20;;;;;;;1.55;0.90;;;;;;;18.30;73.86;101215.25;4946301;28;20051;-78
2023/07/20 09:33:50;;;;;;;1.33;0.75;;;;;;;18.28;73.83;101213.44;4951318;28;20055;-78
2023/07/20 09:36:19;;;;;;;1.58;0.70;;;;;;;18.22;74.29;101227.41;4952156;28;20505;-79
2023/07/20 09:38:55;;;;;;;4.47;1.00;;;;;;;18.13;74.61;101227.34;4949824;28;20048;-76
2023/07/20 09:41:23;;;;;;;1.30;0.65;;;;;;;18.04;76.01;101220.31;4950803;28;20213;-79
2023/07/20 09:43:52;;;;;;;2.30;0.90;;;;;;;17.98;76.10;101225.50;4952351;28;20057;-79
2023/07/20 09:46:22;;;;;;;2.30;0.80;;;;;;;17.93;76.23;101227.22;4950588;28;20058;-78
2023/07/20 09:48:55;;;;;;;2.58;0.80;;;;;;;17.87;76.03;101233.31;4950360;28;20051;-78
2023/07/20 09:51:24;;;;;;;3.42;0.77;;;;;;;17.88;76.30;101231.56;4946292;28;20142;-78
2023/07/20 09:53:55;;;;;;;1.55;0.90;;;;;;;17.88;76.06;101231.56;4948484;28;20497;-79
2023/07/20 09:56:25;;;;;;;0.93;0.70;;;;;;;17.89;76.85;101230.66;4949901;28;20055;-79
2023/07/20 09:58:56;;;;;;;3.47;0.80;;;;;;;17.91;76.09;101239.41;4948500;28;20047;-78
2023/07/20 10:01:28;;;;;;;1.25;0.77;;;;;;;17.95;75.80;101231.59;4948955;28;20122;-79
2023/07/20 10:04:01;;;;;;;0.93;0.55;;;;;;;17.98;75.62;101231.63;4953947;28;20577;-79
2023/07/20 10:06:31;;;;;;;1.33;0.82;;;;;;;17.98;75.53;101235.97;4956244;28;20050;-80
2023/07/20 10:09:03;;;;;;;1.38;0.70;;;;;;;17.96;75.42;101237.72;4945201;28;20051;-79
2023/07/20 10:11:32;;;;;;;;;;;;;;;17.93;76.20;101240.31;4948727;28;20055;-79
2023/07/20 10:14:02;;;;;;;0.98;0.88;;;;;;;17.93;75.55;101242.94;4941132;28;20356;-79
2023/07/20 10:16:38;;;;;;;1.00;0.60;;;;;;;17.93;76.43;101241.19;4952535;28;20070;-78
2023/07/20 10:19:09;;;;;;;3.15;1.10;;;;;;;17.89;76.42;101235.91;4946287;28;20130;-78
2023/07/20 10:21:42;;;;;;;1.30;0.70;;;;;;;17.85;76.53;101250.75;4947537;28;20058;-78
2023/07/20 10:24:13;;;;;;;4.55;1.15;;;;;;;17.83;76.84;101251.59;4946002;28;20047;-78
2023/07/20 10:26:42;;;;;;;1.77;0.93;;;;;;;17.76;77.04;101256.75;4945999;28;20505;-78
2023/07/20 10:29:11;;;;;;;4.20;0.82;;;;;;;17.68;77.50;101254.91;4941856;28;20484;-78
2023/07/20 10:31:42;;;;;;;1.08;0.55;;;;;;;17.62;77.94;101253.13;4948690;28;20417;-78
2023/07/20 10:34:12;;;;;;;1.73;0.80;;;;;;;17.59;78.21;101247.84;4943301;28;20128;-78
2023/07/20 10:36:52;;;;;;;2.03;0.60;;;;;;;17.57;78.01;101258.34;4947685;28;20062;-78
2023/07/20 10:39:27;;;;;;;1.08;0.70;;;;;;;17.53;78.96;101258.28;4947515;28;20106;-77
2023/07/20 10:42:03;;;;;;;1.55;0.85;;;;;;;17.43;79.34;101259.06;4948269;28;20051;-77
2023/07/20 10:44:32;;;;;;;2.05;0.93;;;;;;;17.35;79.36;101254.63;4950025;28;20043;-78
2023/07/20 10:47:10;;;;;;;1.20;0.52;;;;;;;17.34;79.84;101247.66;4948876;28;20051;-78
2023/07/20 10:50:02;;;;;;;0.98;0.68;;;;;;;17.34;79.85;101257.22;4948212;28;20055;-79
2023/07/20 10:52:39;;;;;;;0.82;0.65;;;;;;;17.32;80.25;101254.63;4948167;28;20756;-79
2023/07/20 10:55:16;;;;;;;1.48;0.68;;;;;;;17.31;80.63;101265.91;4951611;28;20051;-77
2023/07/20 10:57:44;;;;;;;2.45;1.15;;;;;;;17.24;80.51;101271.09;4946946;28;20051;-78
2023/07/20 11:00:15;;;;;;;2.28;0.60;;;;;;;17.16;80.91;101266.66;4946472;28;20142;-78
2023/07/20 11:02:49;;;;;;;1.70;0.75;;;;;;;17.13;81.43;101270.97;4946020;28;20644;-78
2023/07/20 11:05:40;;;;;;;1.85;0.93;;;;;;;17.13;80.97;101278.81;4948259;28;20045;-79
2023/07/20 11:08:12;;;;;;;1.92;0.80;;;;;;;17.09;81.45;101277.91;4948987;28;20696;-78
2023/07/20 11:10:41;;;;;;;1.50;0.70;;;;;;;17.02;81.73;101276.09;4951408;28;20043;-77
2023/07/20 11:13:25;;;;;;;4.38;0.93;;;;;;;16.95;82.66;101285.59;4951385;28;20062;-78
2023/07/20 11:16:06;;;;;;;0.80;0.43;;;;;;;16.93;82.50;101284.69;4949657;28;20057;-78
2023/07/20 11:18:40;;;;;;;1.48;0.80;;;;;;;16.90;82.30;101292.47;4948481;28;20391;-77
2023/07/20 11:21:12;;;;;;;1.08;0.43;;;;;;;16.90;81.84;101289.00;4947521;28;20048;-78
2023/07/20 11:23:41;;;;;;;1.13;0.70;;;;;;;16.91;82.26;101293.38;4948367;28;20478;-77
2023/07/20 11:26:12;;;;;;;2.30;0.68;;;;;;;16.91;82.44;101283.81;4949031;28;20066;-78
2023/07/20 11:28:40;;;;;;;0.88;0.70;;;;;;;16.93;81.57;101292.53;4950720;28;20047;-78
2023/07/20 11:31:09;;;;;;;0.93;0.68;;;;;;;16.96;80.97;101292.56;4948633;28;20139;-78
2023/07/20 11:33:40;;;;;;;1.88;0.50;;;;;;;16.98;81.23;101289.13;4947851;28;20489;-78
2023/07/20 11:36:11;;;;;;;1.75;0.60;;;;;;;17.01;81.19;101294.38;4937824;28;20394;-78
2023/07/20 11:38:43;;;;;;;2.33;0.80;;;;;;;17.02;80.30;101303.94;4952854;28;20496;-78
2023/07/20 11:41:11;;;;;;;0.70;0.52;;;;;;;17.03;80.83;101303.09;4949650;28;20112;-77
2023/07/20 11:43:43;;;;;;;1.35;0.70;;;;;;;17.02;80.68;101298.72;4948306;28;20050;-77
2023/07/20 11:46:12;;;;;;;2.15;1.35;;;;;;;17.01;80.80;101300.47;4947421;28;20102;-80
2023/07/20 11:48:43;;;;;;;1.25;0.60;;;;;;;17.00;80.75;101305.69;4952533;28;20061;-78
2023/07/20 11:51:17;;;;;;;1.20;0.50;;;;;;;17.01;80.80;101305.69;4950764;28;20138;-79